Kaneville, IL (60144)

10:39 CST le 05 décembre 2016 (GMT -0600)
Ravelins Subdivision | | Change Station
Avis météorologiques actifs: Dense Fog Advisory Préavis actif: Record Report, Local Storm Report, Public Information Statement

Alt. 787 ft 41.83 °N, 88.53 °W | Updated 32 seconds ago

Overcast
Couvert
31.7 ° F
Paraît 32 ° F
N
0.0
Vent Variable Vent de ESE

Aujourd'hui
Haut(e) -- | Bas -- ° F
--% Risque de précip.
Hier
Haut(e) -- | Bas -- ° F
Precip. -- pouce
Pression 30.06 pouce
Visibilité 0.8 Miles terrestres
Nuages Couvert 200 ft
Refroidissement éolien 32 ° F
Point de rosée 30 ° F
Humidité 93%
Précipitations pouce
Profondeur de la couche neigeuse Non disponible.
7:06 AM 4:23 PM
Lune montante, 33% visible
METAR KARR 051552Z 17008KT 3/4SM BR OVC002 00/M01 A3004 RMK AO2 SLP180 T00001006
Pression 30.06 pouce
Visibilité 0.8 Miles terrestres
Nuages Couvert 200 ft
Refroidissement éolien 32 ° F
Point de rosée 30 ° F
Humidité 93%
Précipitations pouce
Profondeur de la couche neigeuse Non disponible.
7:06 AM 4:23 PM
Lune montante, 33% visible
METAR KARR 051552Z 17008KT 3/4SM BR OVC002 00/M01 A3004 RMK AO2 SLP180 T00001006

10-Day Weather Forecast

Almanac

Astronomie

Dec. 05, 2016 Lever Coucher
Temps réel
Crépuscule civil
Crépuscule nautique
Crépuscule astronomique
Lune
Durée de lumière visible
Longueur du jour
Tomorrow will be .
, % of the Moon is Illuminated

Extrêmes aujourd'hui

State Highs State Lows

Community

WunderPhotos

Upload Photos

1,955,819 Photos téléchargées !

WunderBlog® & News

Nearby

Qualité de l'air

  Qualité de l'air Indice de la qualité de l'air Polluant
Not available.

Épaisseur de neige

Station Depth Altitude

Activité sismique

Ville Distance Mag. Time & Date
Minimum magnitude displayed is 2.5.

Températures des eaux côtières

Lieu Température

Stations

Stations météo à proximité

Emplacement de la station Température Refroidissement éolien Point de rosée Humidité Vent Precip. Alt. Mise à jour Type
                   

Watches & Warnings

Dense Fog Advisory
Issued: 09:10 CST Dec. 5, 2016 – National Weather Service

... Dense fog advisory in effect until 1 PM CST this afternoon...

The National Weather Service in Chicago has issued a dense fog
advisory... which is in effect until 1 PM CST this afternoon.

* Visibility... areas of dense fog will reduce visibility to one
quarter mile or less through early afternoon.

* Impacts... temperatures near freezing may result in fog freezing
on roads creating slick conditions. Temperatures will rise to
above freezing this morning. Otherwise... severely reduced
visibilities will make driving difficult.

Precautionary/preparedness actions...

A dense fog advisory means visibilities will frequently be
reduced to less than one quarter mile. If driving... slow down...
use your headlights... and leave plenty of distance ahead of you.



Jee